HLG weather

Wheeling Ohio County Airport
Wheeling, West Virginia, United States

Public forecast

Using degrees Fahrenheit for public forecast. Weather courtesy of forecast.io.

METAR (pilot weather report)

Retrieved 2019/05/22 09:53 UTC (57 minutes ago):

KHLG 220953Z AUTO 11008KT 10SM CLR 11/05 A3011 RMK AO2 SLP200 T01110050

TAF (pilot weather forecast)

Retrieved 2019/05/22 06:28 UTC (4 hours ago):

TAF KHLG 220525Z 2206/2306 08006KT P6SM FEW250 FM221700 16008G18KT P6SM BKN060 FM230300 18007KT P6SM BKN050